Weather at Aviosuperficie Il Falco

Public forecast

Using degrees Celsius for public forecast. Weather courtesy of forecast.io.

Closest aviation weather report (METAR) to Aviosuperficie Il Falco

Closest report is Turin Airport, 13.3 nm (24.5 km) WSW. Retrieved 2020/11/28 13:20 UTC (24 minutes ago):

LIMF 281320Z VRB01KT 3800 BR BKN060 07/03 Q1017

Closest aviation forecast (TAF) to Aviosuperficie Il Falco

Closest forecast is Turin Airport, 13.3 nm (24.5 km) WSW. Retrieved 2020/11/28 12:25 UTC (1 hour ago):

TAF LIMF 281100Z 2812/2912 VRB05KT 6000 BKN060 TEMPO 2820/2906 4000 BR